Caruthersville, Missouri
Current Conditions -  °F | °C
As of 5:15 PM on Tuesday 25 Nov 2014 (Local Time) from KDYR Reporting Station
Clear Clear  
Wind Chill: 39°   Ceiling: Unl
Heat Index: 39°   Visibility: 10mi
Dew Point: 19°   Wind: 3mph
Humidity: 45%   Direction: 320°NW
Pressure: 30.19"   Gusts: NA
Location:  36.19°N, 89.67°W
Report Text: KDYR 252315Z 32003KT 10SM CLR 04/M07 A3019 RMK AO1
Loading
Personal Weather Stations






























Interactive Weather Map New forecast layout! Learn more

10-Day Weather Forecast

Advertisements
Track Severe Weather on mobile